sensor_id;sensor_type;location;lat;lon;timestamp;temperature;humidity
3860;DHT22;1945;52.036;8.614;2022-11-28T00:00:07;7.00;1.00
3860;DHT22;1945;52.036;8.614;2022-11-28T00:02:35;7.10;1.00
3860;DHT22;1945;52.036;8.614;2022-11-28T00:05:03;6.70;1.00
3860;DHT22;1945;52.036;8.614;2022-11-28T00:07:29;6.90;1.00
3860;DHT22;1945;52.036;8.614;2022-11-28T00:09:56;7.40;1.00
3860;DHT22;1945;52.036;8.614;2022-11-28T00:12:23;7.00;1.00
3860;DHT22;1945;52.036;8.614;2022-11-28T00:14:50;7.60;1.00
3860;DHT22;1945;52.036;8.614;2022-11-28T00:17:17;7.40;1.00
3860;DHT22;1945;52.036;8.614;2022-11-28T00:19:45;7.60;1.00
3860;DHT22;1945;52.036;8.614;2022-11-28T00:22:12;6.70;1.00
3860;DHT22;1945;52.036;8.614;2022-11-28T00:24:39;7.10;1.00
3860;DHT22;1945;52.036;8.614;2022-11-28T00:27:05;7.10;1.00
3860;DHT22;1945;52.036;8.614;2022-11-28T00:29:32;7.40;1.00
3860;DHT22;1945;52.036;8.614;2022-11-28T00:31:59;6.60;99.90
3860;DHT22;1945;52.036;8.614;2022-11-28T00:34:26;7.10;99.90
3860;DHT22;1945;52.036;8.614;2022-11-28T00:36:54;7.10;99.90
3860;DHT22;1945;52.036;8.614;2022-11-28T00:39:20;7.60;1.00
3860;DHT22;1945;52.036;8.614;2022-11-28T00:41:47;7.50;99.90
3860;DHT22;1945;52.036;8.614;2022-11-28T00:44:14;7.50;99.90
3860;DHT22;1945;52.036;8.614;2022-11-28T00:46:41;6.70;99.90
3860;DHT22;1945;52.036;8.614;2022-11-28T00:49:08;7.20;99.90
3860;DHT22;1945;52.036;8.614;2022-11-28T00:51:35;7.50;99.90
3860;DHT22;1945;52.036;8.614;2022-11-28T00:54:05;7.10;99.90
3860;DHT22;1945;52.036;8.614;2022-11-28T00:56:33;7.70;99.90
3860;DHT22;1945;52.036;8.614;2022-11-28T00:59:00;7.50;99.90
3860;DHT22;1945;52.036;8.614;2022-11-28T01:01:29;7.60;99.90
3860;DHT22;1945;52.036;8.614;2022-11-28T01:03:59;7.50;99.90
3860;DHT22;1945;52.036;8.614;2022-11-28T01:06:28;7.50;58.10
3860;DHT22;1945;52.036;8.614;2022-11-28T01:08:56;7.10;99.90
3860;DHT22;1945;52.036;8.614;2022-11-28T01:11:25;7.60;99.90
3860;DHT22;1945;52.036;8.614;2022-11-28T01:13:53;7.70;99.90
3860;DHT22;1945;52.036;8.614;2022-11-28T01:16:20;7.10;99.90
3860;DHT22;1945;52.036;8.614;2022-11-28T01:18:46;7.10;99.90
3860;DHT22;1945;52.036;8.614;2022-11-28T01:21:13;7.20;99.90
3860;DHT22;1945;52.036;8.614;2022-11-28T01:23:40;7.60;99.90
3860;DHT22;1945;52.036;8.614;2022-11-28T01:26:09;6.70;99.90
3860;DHT22;1945;52.036;8.614;2022-11-28T01:28:38;7.10;99.90
3860;DHT22;1945;52.036;8.614;2022-11-28T01:31:06;7.60;99.90
3860;DHT22;1945;52.036;8.614;2022-11-28T01:33:33;7.30;99.90
3860;DHT22;1945;52.036;8.614;2022-11-28T01:36:00;7.20;99.90
3860;DHT22;1945;52.036;8.614;2022-11-28T01:38:27;7.60;99.90
3860;DHT22;1945;52.036;8.614;2022-11-28T01:40:54;7.30;99.90
3860;DHT22;1945;52.036;8.614;2022-11-28T01:43:22;7.20;99.90
3860;DHT22;1945;52.036;8.614;2022-11-28T01:45:51;7.60;99.90
3860;DHT22;1945;52.036;8.614;2022-11-28T01:48:22;7.60;99.90
3860;DHT22;1945;52.036;8.614;2022-11-28T01:50:53;7.70;99.90
3860;DHT22;1945;52.036;8.614;2022-11-28T01:53:21;7.60;99.90
3860;DHT22;1945;52.036;8.614;2022-11-28T01:55:51;7.70;99.90
3860;DHT22;1945;52.036;8.614;2022-11-28T01:58:20;7.20;99.90
3860;DHT22;1945;52.036;8.614;2022-11-28T02:00:47;7.60;99.90
3860;DHT22;1945;52.036;8.614;2022-11-28T02:03:19;7.10;99.90
3860;DHT22;1945;52.036;8.614;2022-11-28T02:05:48;7.20;99.90
3860;DHT22;1945;52.036;8.614;2022-11-28T02:08:16;7.60;99.90
3860;DHT22;1945;52.036;8.614;2022-11-28T02:10:56;7.10;99.90
3860;DHT22;1945;52.036;8.614;2022-11-28T02:13:36;7.60;99.90
3860;DHT22;1945;52.036;8.614;2022-11-28T02:16:13;7.50;99.90
3860;DHT22;1945;52.036;8.614;2022-11-28T02:18:54;7.10;99.90
3860;DHT22;1945;52.036;8.614;2022-11-28T02:21:33;6.80;99.90
3860;DHT22;1945;52.036;8.614;2022-11-28T02:24:48;7.10;99.90
3860;DHT22;1945;52.036;8.614;2022-11-28T02:30:18;7.10;99.90
3860;DHT22;1945;52.036;8.614;2022-11-28T02:32:59;7.40;99.90
3860;DHT22;1945;52.036;8.614;2022-11-28T02:35:34;7.00;99.90
3860;DHT22;1945;52.036;8.614;2022-11-28T02:38:11;7.00;99.90
3860;DHT22;1945;52.036;8.614;2022-11-28T02:40:47;7.50;99.90
3860;DHT22;1945;52.036;8.614;2022-11-28T02:43:21;7.00;99.90
3860;DHT22;1945;52.036;8.614;2022-11-28T02:45:53;6.70;99.90
3860;DHT22;1945;52.036;8.614;2022-11-28T02:48:26;7.50;99.90
3860;DHT22;1945;52.036;8.614;2022-11-28T02:51:00;7.00;99.90
3860;DHT22;1945;52.036;8.614;2022-11-28T02:53:29;7.50;99.90
3860;DHT22;1945;52.036;8.614;2022-11-28T02:55:58;7.00;99.90
3860;DHT22;1945;52.036;8.614;2022-11-28T02:58:25;7.00;99.90
3860;DHT22;1945;52.036;8.614;2022-11-28T03:00:52;7.10;99.90
3860;DHT22;1945;52.036;8.614;2022-11-28T03:03:32;7.50;99.90
3860;DHT22;1945;52.036;8.614;2022-11-28T03:06:08;7.00;99.90
3860;DHT22;1945;52.036;8.614;2022-11-28T03:08:52;7.00;99.90
3860;DHT22;1945;52.036;8.614;2022-11-28T03:11:28;7.00;99.90
3860;DHT22;1945;52.036;8.614;2022-11-28T03:14:05;7.00;99.90
3860;DHT22;1945;52.036;8.614;2022-11-28T03:16:38;7.40;99.90
3860;DHT22;1945;52.036;8.614;2022-11-28T03:19:16;7.00;99.90
3860;DHT22;1945;52.036;8.614;2022-11-28T03:21:46;7.00;99.90
3860;DHT22;1945;52.036;8.614;2022-11-28T03:24:21;7.40;99.90
3860;DHT22;1945;52.036;8.614;2022-11-28T03:26:54;7.40;99.90
3860;DHT22;1945;52.036;8.614;2022-11-28T03:29:28;7.50;99.90
3860;DHT22;1945;52.036;8.614;2022-11-28T03:31:59;6.50;99.90
3860;DHT22;1945;52.036;8.614;2022-11-28T03:34:32;7.30;1.00
3860;DHT22;1945;52.036;8.614;2022-11-28T03:37:03;6.90;1.00
3860;DHT22;1945;52.036;8.614;2022-11-28T03:39:36;6.90;1.00
3860;DHT22;1945;52.036;8.614;2022-11-28T03:42:08;6.50;1.00
3860;DHT22;1945;52.036;8.614;2022-11-28T03:44:38;7.40;1.00
3860;DHT22;1945;52.036;8.614;2022-11-28T03:47:07;7.20;1.00
3860;DHT22;1945;52.036;8.614;2022-11-28T03:49:38;7.10;1.00
3860;DHT22;1945;52.036;8.614;2022-11-28T03:52:07;7.40;1.00
3860;DHT22;1945;52.036;8.614;2022-11-28T03:54:39;6.90;1.00
3860;DHT22;1945;52.036;8.614;2022-11-28T03:57:10;7.30;1.00
3860;DHT22;1945;52.036;8.614;2022-11-28T03:59:42;7.30;1.00
3860;DHT22;1945;52.036;8.614;2022-11-28T04:02:14;6.90;1.00
3860;DHT22;1945;52.036;8.614;2022-11-28T04:04:51;6.90;1.00
3860;DHT22;1945;52.036;8.614;2022-11-28T04:07:25;7.30;1.00
3860;DHT22;1945;52.036;8.614;2022-11-28T04:09:57;7.30;1.00
3860;DHT22;1945;52.036;8.614;2022-11-28T04:12:31;7.30;1.00
3860;DHT22;1945;52.036;8.614;2022-11-28T04:15:05;6.90;1.00
3860;DHT22;1945;52.036;8.614;2022-11-28T04:17:36;6.90;1.00
3860;DHT22;1945;52.036;8.614;2022-11-28T04:20:12;7.40;1.00
3860;DHT22;1945;52.036;8.614;2022-11-28T04:22:44;6.80;1.00
3860;DHT22;1945;52.036;8.614;2022-11-28T04:25:15;7.30;1.00
3860;DHT22;1945;52.036;8.614;2022-11-28T04:27:46;6.80;1.00
3860;DHT22;1945;52.036;8.614;2022-11-28T04:30:15;7.40;1.00
3860;DHT22;1945;52.036;8.614;2022-11-28T04:32:47;6.90;1.00
3860;DHT22;1945;52.036;8.614;2022-11-28T04:35:21;6.60;1.00
3860;DHT22;1945;52.036;8.614;2022-11-28T04:37:50;6.80;1.00
3860;DHT22;1945;52.036;8.614;2022-11-28T04:40:20;6.40;1.00
3860;DHT22;1945;52.036;8.614;2022-11-28T04:42:52;6.30;1.00
3860;DHT22;1945;52.036;8.614;2022-11-28T04:45:23;7.30;1.00
3860;DHT22;1945;52.036;8.614;2022-11-28T04:47:52;7.30;99.90
3860;DHT22;1945;52.036;8.614;2022-11-28T04:50:22;7.10;99.90
3860;DHT22;1945;52.036;8.614;2022-11-28T04:52:55;6.90;99.90
3860;DHT22;1945;52.036;8.614;2022-11-28T04:55:29;7.40;99.90
3860;DHT22;1945;52.036;8.614;2022-11-28T04:58:02;7.30;1.00
3860;DHT22;1945;52.036;8.614;2022-11-28T05:00:32;6.90;99.90
3860;DHT22;1945;52.036;8.614;2022-11-28T05:03:00;6.90;99.90
3860;DHT22;1945;52.036;8.614;2022-11-28T05:05:28;6.80;1.00
3860;DHT22;1945;52.036;8.614;2022-11-28T05:07:56;7.40;1.00
3860;DHT22;1945;52.036;8.614;2022-11-28T05:10:23;6.80;1.00
3860;DHT22;1945;52.036;8.614;2022-11-28T05:12:50;7.10;1.00
3860;DHT22;1945;52.036;8.614;2022-11-28T05:15:17;6.80;1.00
3860;DHT22;1945;52.036;8.614;2022-11-28T05:17:44;6.80;1.00
3860;DHT22;1945;52.036;8.614;2022-11-28T05:20:12;7.20;1.00
3860;DHT22;1945;52.036;8.614;2022-11-28T05:22:40;7.00;1.00
3860;DHT22;1945;52.036;8.614;2022-11-28T05:25:07;7.20;1.00
3860;DHT22;1945;52.036;8.614;2022-11-28T05:27:34;6.80;1.00
3860;DHT22;1945;52.036;8.614;2022-11-28T05:30:01;6.30;1.00
3860;DHT22;1945;52.036;8.614;2022-11-28T05:32:29;7.30;1.00
3860;DHT22;1945;52.036;8.614;2022-11-28T05:34:56;6.80;1.00
3860;DHT22;1945;52.036;8.614;2022-11-28T05:37:23;6.80;1.00
3860;DHT22;1945;52.036;8.614;2022-11-28T05:39:51;7.30;1.00
3860;DHT22;1945;52.036;8.614;2022-11-28T05:42:18;7.00;99.90
3860;DHT22;1945;52.036;8.614;2022-11-28T05:44:45;6.80;1.00
3860;DHT22;1945;52.036;8.614;2022-11-28T05:47:13;6.90;99.90
3860;DHT22;1945;52.036;8.614;2022-11-28T05:49:41;6.80;1.00
3860;DHT22;1945;52.036;8.614;2022-11-28T05:52:08;6.80;1.00
3860;DHT22;1945;52.036;8.614;2022-11-28T05:54:35;6.30;1.00
3860;DHT22;1945;52.036;8.614;2022-11-28T05:57:03;7.10;1.00
3860;DHT22;1945;52.036;8.614;2022-11-28T05:59:31;7.30;1.00
3860;DHT22;1945;52.036;8.614;2022-11-28T06:01:58;6.80;1.00
3860;DHT22;1945;52.036;8.614;2022-11-28T06:04:25;7.20;1.00
3860;DHT22;1945;52.036;8.614;2022-11-28T06:06:52;7.30;1.00
3860;DHT22;1945;52.036;8.614;2022-11-28T06:09:18;6.80;1.00
3860;DHT22;1945;52.036;8.614;2022-11-28T06:11:45;7.20;1.00
3860;DHT22;1945;52.036;8.614;2022-11-28T06:14:13;7.30;1.00
3860;DHT22;1945;52.036;8.614;2022-11-28T06:16:40;7.20;1.00
3860;DHT22;1945;52.036;8.614;2022-11-28T06:19:10;7.10;1.00
3860;DHT22;1945;52.036;8.614;2022-11-28T06:21:37;7.20;1.00
3860;DHT22;1945;52.036;8.614;2022-11-28T06:24:05;6.70;1.00
3860;DHT22;1945;52.036;8.614;2022-11-28T06:26:31;6.70;1.00
3860;DHT22;1945;52.036;8.614;2022-11-28T06:28:58;7.10;1.00
3860;DHT22;1945;52.036;8.614;2022-11-28T06:31:29;6.60;1.00
3860;DHT22;1945;52.036;8.614;2022-11-28T06:33:57;7.10;1.00
3860;DHT22;1945;52.036;8.614;2022-11-28T06:36:24;7.10;1.00
3860;DHT22;1945;52.036;8.614;2022-11-28T06:38:51;7.00;1.00
3860;DHT22;1945;52.036;8.614;2022-11-28T06:41:19;6.90;1.00
3860;DHT22;1945;52.036;8.614;2022-11-28T06:43:47;6.90;1.00
3860;DHT22;1945;52.036;8.614;2022-11-28T06:46:16;6.90;1.00
3860;DHT22;1945;52.036;8.614;2022-11-28T06:48:46;6.90;1.00
3860;DHT22;1945;52.036;8.614;2022-11-28T06:51:13;6.50;1.00
3860;DHT22;1945;52.036;8.614;2022-11-28T06:53:40;7.00;1.00
3860;DHT22;1945;52.036;8.614;2022-11-28T06:56:08;6.90;1.00
3860;DHT22;1945;52.036;8.614;2022-11-28T06:58:36;6.50;1.00
3860;DHT22;1945;52.036;8.614;2022-11-28T07:01:07;6.80;99.90
3860;DHT22;1945;52.036;8.614;2022-11-28T07:03:34;6.40;99.90
3860;DHT22;1945;52.036;8.614;2022-11-28T07:06:03;6.60;99.90
3860;DHT22;1945;52.036;8.614;2022-11-28T07:08:30;6.40;99.90
3860;DHT22;1945;52.036;8.614;2022-11-28T07:11:01;6.40;1.00
3860;DHT22;1945;52.036;8.614;2022-11-28T07:13:32;6.80;1.00
3860;DHT22;1945;52.036;8.614;2022-11-28T07:15:58;6.80;1.00
3860;DHT22;1945;52.036;8.614;2022-11-28T07:18:25;6.70;1.00
3860;DHT22;1945;52.036;8.614;2022-11-28T07:20:52;6.70;1.00
3860;DHT22;1945;52.036;8.614;2022-11-28T07:23:20;6.70;1.00
3860;DHT22;1945;52.036;8.614;2022-11-28T07:25:47;6.60;1.00
3860;DHT22;1945;52.036;8.614;2022-11-28T07:28:13;6.50;1.00
3860;DHT22;1945;52.036;8.614;2022-11-28T07:30:40;6.60;1.00
3860;DHT22;1945;52.036;8.614;2022-11-28T07:33:07;6.10;1.00
3860;DHT22;1945;52.036;8.614;2022-11-28T07:35:34;6.50;1.00
3860;DHT22;1945;52.036;8.614;2022-11-28T07:38:00;6.70;1.00
3860;DHT22;1945;52.036;8.614;2022-11-28T07:40:28;6.50;1.00
3860;DHT22;1945;52.036;8.614;2022-11-28T07:42:57;6.60;1.00
3860;DHT22;1945;52.036;8.614;2022-11-28T07:45:23;6.60;1.00
3860;DHT22;1945;52.036;8.614;2022-11-28T07:47:50;6.60;1.00
3860;DHT22;1945;52.036;8.614;2022-11-28T07:50:17;6.60;1.00
3860;DHT22;1945;52.036;8.614;2022-11-28T07:52:44;6.20;1.00
3860;DHT22;1945;52.036;8.614;2022-11-28T07:55:10;6.50;1.00
3860;DHT22;1945;52.036;8.614;2022-11-28T07:57:38;6.60;1.00
3860;DHT22;1945;52.036;8.614;2022-11-28T08:00:06;6.50;1.00
3860;DHT22;1945;52.036;8.614;2022-11-28T08:02:33;6.10;1.00
3860;DHT22;1945;52.036;8.614;2022-11-28T08:05:00;6.00;1.00
3860;DHT22;1945;52.036;8.614;2022-11-28T08:07:27;6.00;1.00
3860;DHT22;1945;52.036;8.614;2022-11-28T08:09:53;6.50;1.00
3860;DHT22;1945;52.036;8.614;2022-11-28T08:12:20;6.30;1.00
3860;DHT22;1945;52.036;8.614;2022-11-28T08:14:48;6.40;1.00
3860;DHT22;1945;52.036;8.614;2022-11-28T08:17:15;6.00;1.00
3860;DHT22;1945;52.036;8.614;2022-11-28T08:19:42;6.00;1.00
3860;DHT22;1945;52.036;8.614;2022-11-28T08:22:08;6.40;1.00
3860;DHT22;1945;52.036;8.614;2022-11-28T08:24:35;6.50;1.00
3860;DHT22;1945;52.036;8.614;2022-11-28T08:27:02;6.00;1.00
3860;DHT22;1945;52.036;8.614;2022-11-28T08:29:29;6.00;1.00
3860;DHT22;1945;52.036;8.614;2022-11-28T08:31:57;6.30;1.00
3860;DHT22;1945;52.036;8.614;2022-11-28T08:34:24;6.50;1.00
3860;DHT22;1945;52.036;8.614;2022-11-28T08:36:50;6.00;1.00
3860;DHT22;1945;52.036;8.614;2022-11-28T08:39:17;6.40;1.00
3860;DHT22;1945;52.036;8.614;2022-11-28T08:41:45;6.40;1.00
3860;DHT22;1945;52.036;8.614;2022-11-28T08:44:12;6.40;1.00
3860;DHT22;1945;52.036;8.614;2022-11-28T08:46:39;6.10;1.00
3860;DHT22;1945;52.036;8.614;2022-11-28T08:49:07;6.50;1.00
3860;DHT22;1945;52.036;8.614;2022-11-28T08:51:34;6.40;1.00
3860;DHT22;1945;52.036;8.614;2022-11-28T08:54:01;6.60;1.00
3860;DHT22;1945;52.036;8.614;2022-11-28T08:56:29;6.10;1.00
3860;DHT22;1945;52.036;8.614;2022-11-28T08:58:55;6.10;1.00
3860;DHT22;1945;52.036;8.614;2022-11-28T09:01:24;6.50;1.00
3860;DHT22;1945;52.036;8.614;2022-11-28T09:03:52;5.80;1.00
3860;DHT22;1945;52.036;8.614;2022-11-28T09:06:21;6.80;1.00
3860;DHT22;1945;52.036;8.614;2022-11-28T09:08:49;6.60;1.00
3860;DHT22;1945;52.036;8.614;2022-11-28T09:11:18;6.50;1.00
3860;DHT22;1945;52.036;8.614;2022-11-28T09:13:45;6.60;1.00
3860;DHT22;1945;52.036;8.614;2022-11-28T09:16:12;6.50;1.00
3860;DHT22;1945;52.036;8.614;2022-11-28T09:18:39;6.70;1.00
3860;DHT22;1945;52.036;8.614;2022-11-28T09:21:07;6.10;1.00
3860;DHT22;1945;52.036;8.614;2022-11-28T09:23:37;6.60;1.00
3860;DHT22;1945;52.036;8.614;2022-11-28T09:26:07;6.20;1.00
3860;DHT22;1945;52.036;8.614;2022-11-28T09:28:34;6.30;1.00
3860;DHT22;1945;52.036;8.614;2022-11-28T09:31:01;6.30;1.00
3860;DHT22;1945;52.036;8.614;2022-11-28T09:33:28;6.30;1.00
3860;DHT22;1945;52.036;8.614;2022-11-28T09:35:55;6.80;1.00
3860;DHT22;1945;52.036;8.614;2022-11-28T09:38:23;6.40;1.00
3860;DHT22;1945;52.036;8.614;2022-11-28T09:40:51;6.40;1.00
3860;DHT22;1945;52.036;8.614;2022-11-28T09:43:23;6.40;1.00
3860;DHT22;1945;52.036;8.614;2022-11-28T09:45:53;6.40;1.00
3860;DHT22;1945;52.036;8.614;2022-11-28T09:48:25;6.90;1.00
3860;DHT22;1945;52.036;8.614;2022-11-28T09:50:57;7.00;1.00
3860;DHT22;1945;52.036;8.614;2022-11-28T09:53:29;6.40;99.90
3860;DHT22;1945;52.036;8.614;2022-11-28T09:56:04;6.40;1.00
3860;DHT22;1945;52.036;8.614;2022-11-28T09:58:40;7.00;1.00
3860;DHT22;1945;52.036;8.614;2022-11-28T10:01:15;6.50;1.00
3860;DHT22;1945;52.036;8.614;2022-11-28T10:03:48;6.90;1.00
3860;DHT22;1945;52.036;8.614;2022-11-28T10:06:22;6.90;1.00
3860;DHT22;1945;52.036;8.614;2022-11-28T10:09:06;6.50;1.00
3860;DHT22;1945;52.036;8.614;2022-11-28T10:11:48;6.50;1.00
3860;DHT22;1945;52.036;8.614;2022-11-28T10:14:37;6.90;1.00
3860;DHT22;1945;52.036;8.614;2022-11-28T10:17:13;6.50;1.00
3860;DHT22;1945;52.036;8.614;2022-11-28T10:19:46;7.00;1.00
3860;DHT22;1945;52.036;8.614;2022-11-28T10:22:21;7.00;1.00
3860;DHT22;1945;52.036;8.614;2022-11-28T10:24:55;7.10;1.00
3860;DHT22;1945;52.036;8.614;2022-11-28T10:27:33;6.60;1.00
3860;DHT22;1945;52.036;8.614;2022-11-28T10:30:03;7.10;1.00
3860;DHT22;1945;52.036;8.614;2022-11-28T10:32:34;6.60;1.00
3860;DHT22;1945;52.036;8.614;2022-11-28T10:35:05;7.00;1.00
3860;DHT22;1945;52.036;8.614;2022-11-28T10:37:35;6.60;1.00
3860;DHT22;1945;52.036;8.614;2022-11-28T10:40:15;6.60;1.00
3860;DHT22;1945;52.036;8.614;2022-11-28T10:42:48;6.70;1.00
3860;DHT22;1945;52.036;8.614;2022-11-28T10:45:23;7.10;1.00
3860;DHT22;1945;52.036;8.614;2022-11-28T10:48:09;6.70;99.90
3860;DHT22;1945;52.036;8.614;2022-11-28T10:50:42;6.80;1.00
3860;DHT22;1945;52.036;8.614;2022-11-28T10:53:17;7.30;1.00
3860;DHT22;1945;52.036;8.614;2022-11-28T10:56:01;7.20;1.00
3860;DHT22;1945;52.036;8.614;2022-11-28T10:58:34;6.90;1.00
3860;DHT22;1945;52.036;8.614;2022-11-28T11:01:03;7.30;1.00
3860;DHT22;1945;52.036;8.614;2022-11-28T11:03:31;7.40;99.90
3860;DHT22;1945;52.036;8.614;2022-11-28T11:06:00;6.90;99.90
3860;DHT22;1945;52.036;8.614;2022-11-28T11:08:28;7.30;99.90
3860;DHT22;1945;52.036;8.614;2022-11-28T11:11:00;7.00;99.90
3860;DHT22;1945;52.036;8.614;2022-11-28T11:13:32;7.50;99.90
3860;DHT22;1945;52.036;8.614;2022-11-28T11:16:01;7.00;99.90
3860;DHT22;1945;52.036;8.614;2022-11-28T11:18:30;7.50;99.90
3860;DHT22;1945;52.036;8.614;2022-11-28T11:21:13;7.00;99.90
3860;DHT22;1945;52.036;8.614;2022-11-28T11:23:40;7.10;99.90
3860;DHT22;1945;52.036;8.614;2022-11-28T11:26:11;7.10;99.90
3860;DHT22;1945;52.036;8.614;2022-11-28T11:28:47;7.10;99.90
3860;DHT22;1945;52.036;8.614;2022-11-28T11:31:20;7.60;99.90
3860;DHT22;1945;52.036;8.614;2022-11-28T11:33:48;7.20;99.90
3860;DHT22;1945;52.036;8.614;2022-11-28T11:36:22;7.20;99.90
3860;DHT22;1945;52.036;8.614;2022-11-28T11:39:04;7.20;99.90
3860;DHT22;1945;52.036;8.614;2022-11-28T11:41:32;7.20;99.90
3860;DHT22;1945;52.036;8.614;2022-11-28T11:44:29;7.70;99.90
3860;DHT22;1945;52.036;8.614;2022-11-28T11:47:00;7.30;99.90
3860;DHT22;1945;52.036;8.614;2022-11-28T11:49:30;6.90;99.90
3860;DHT22;1945;52.036;8.614;2022-11-28T11:52:00;7.80;99.90
3860;DHT22;1945;52.036;8.614;2022-11-28T11:54:27;7.30;99.90
3860;DHT22;1945;52.036;8.614;2022-11-28T11:56:54;7.60;90.70
3860;DHT22;1945;52.036;8.614;2022-11-28T11:59:28;7.30;56.80
3860;DHT22;1945;52.036;8.614;2022-11-28T12:01:59;7.40;99.90
3860;DHT22;1945;52.036;8.614;2022-11-28T12:04:30;7.80;99.90
3860;DHT22;1945;52.036;8.614;2022-11-28T12:07:01;7.40;99.90
3860;DHT22;1945;52.036;8.614;2022-11-28T12:09:33;7.80;99.90
3860;DHT22;1945;52.036;8.614;2022-11-28T12:12:10;7.80;99.90
3860;DHT22;1945;52.036;8.614;2022-11-28T12:14:39;7.40;99.90
3860;DHT22;1945;52.036;8.614;2022-11-28T12:17:39;7.40;99.90
3860;DHT22;1945;52.036;8.614;2022-11-28T12:20:40;8.00;99.90
3860;DHT22;1945;52.036;8.614;2022-11-28T12:23:20;7.40;99.90
3860;DHT22;1945;52.036;8.614;2022-11-28T12:25:52;7.90;99.90
3860;DHT22;1945;52.036;8.614;2022-11-28T12:28:30;7.90;99.90
3860;DHT22;1945;52.036;8.614;2022-11-28T12:31:09;7.50;99.90
3860;DHT22;1945;52.036;8.614;2022-11-28T12:33:50;7.90;99.90
3860;DHT22;1945;52.036;8.614;2022-11-28T12:36:28;7.50;99.90
3860;DHT22;1945;52.036;8.614;2022-11-28T12:38:59;7.50;99.90
3860;DHT22;1945;52.036;8.614;2022-11-28T12:41:44;7.50;99.90
3860;DHT22;1945;52.036;8.614;2022-11-28T12:44:21;7.50;99.90
3860;DHT22;1945;52.036;8.614;2022-11-28T12:47:00;8.10;99.90
3860;DHT22;1945;52.036;8.614;2022-11-28T12:49:36;8.00;99.90
3860;DHT22;1945;52.036;8.614;2022-11-28T12:52:19;7.50;99.90
3860;DHT22;1945;52.036;8.614;2022-11-28T12:55:03;7.60;99.90
3860;DHT22;1945;52.036;8.614;2022-11-28T12:57:39;7.60;99.90
3860;DHT22;1945;52.036;8.614;2022-11-28T13:00:12;7.60;99.90
3860;DHT22;1945;52.036;8.614;2022-11-28T13:02:49;7.60;99.90
3860;DHT22;1945;52.036;8.614;2022-11-28T13:05:43;7.60;99.90
3860;DHT22;1945;52.036;8.614;2022-11-28T13:08:22;7.60;99.90
3860;DHT22;1945;52.036;8.614;2022-11-28T13:10:52;8.00;99.90
3860;DHT22;1945;52.036;8.614;2022-11-28T13:13:25;7.90;99.90
3860;DHT22;1945;52.036;8.614;2022-11-28T13:15:58;7.50;99.90
3860;DHT22;1945;52.036;8.614;2022-11-28T13:18:37;7.60;99.90
3860;DHT22;1945;52.036;8.614;2022-11-28T13:21:12;7.60;99.90
3860;DHT22;1945;52.036;8.614;2022-11-28T13:23:45;7.60;99.90
3860;DHT22;1945;52.036;8.614;2022-11-28T13:26:19;7.60;99.90
3860;DHT22;1945;52.036;8.614;2022-11-28T13:28:56;8.10;99.90
3860;DHT22;1945;52.036;8.614;2022-11-28T13:31:31;8.20;99.90
3860;DHT22;1945;52.036;8.614;2022-11-28T13:34:01;7.60;99.90
3860;DHT22;1945;52.036;8.614;2022-11-28T13:36:34;7.60;99.90
3860;DHT22;1945;52.036;8.614;2022-11-28T13:39:10;7.60;99.90
3860;DHT22;1945;52.036;8.614;2022-11-28T13:41:41;8.10;99.90
3860;DHT22;1945;52.036;8.614;2022-11-28T13:44:15;7.60;99.90
3860;DHT22;1945;52.036;8.614;2022-11-28T13:46:43;7.50;99.90
3860;DHT22;1945;52.036;8.614;2022-11-28T13:49:20;8.00;99.90
3860;DHT22;1945;52.036;8.614;2022-11-28T13:51:47;7.40;99.90
3860;DHT22;1945;52.036;8.614;2022-11-28T13:54:41;7.50;1.00
3860;DHT22;1945;52.036;8.614;2022-11-28T13:57:20;7.40;1.00
3860;DHT22;1945;52.036;8.614;2022-11-28T14:00:19;7.40;1.00
3860;DHT22;1945;52.036;8.614;2022-11-28T14:02:50;8.00;1.00
3860;DHT22;1945;52.036;8.614;2022-11-28T14:05:27;7.30;1.00
3860;DHT22;1945;52.036;8.614;2022-11-28T14:07:56;7.30;1.00
3860;DHT22;1945;52.036;8.614;2022-11-28T14:10:48;7.30;1.00
3860;DHT22;1945;52.036;8.614;2022-11-28T14:16:26;7.30;1.00
3860;DHT22;1945;52.036;8.614;2022-11-28T14:19:15;7.80;1.00
3860;DHT22;1945;52.036;8.614;2022-11-28T14:21:56;7.30;1.00
3860;DHT22;1945;52.036;8.614;2022-11-28T14:24:46;7.60;1.00
3860;DHT22;1945;52.036;8.614;2022-11-28T14:27:20;7.30;1.00
3860;DHT22;1945;52.036;8.614;2022-11-28T14:29:50;7.30;1.00
3860;DHT22;1945;52.036;8.614;2022-11-28T14:32:26;7.70;1.00
3860;DHT22;1945;52.036;8.614;2022-11-28T14:34:54;7.30;1.00
3860;DHT22;1945;52.036;8.614;2022-11-28T14:37:52;7.80;1.00
3860;DHT22;1945;52.036;8.614;2022-11-28T14:43:35;7.20;1.00
3860;DHT22;1945;52.036;8.614;2022-11-28T14:46:32;7.70;1.00
3860;DHT22;1945;52.036;8.614;2022-11-28T14:49:17;7.70;1.00
3860;DHT22;1945;52.036;8.614;2022-11-28T14:52:18;7.20;1.00
3860;DHT22;1945;52.036;8.614;2022-11-28T14:54:47;7.20;1.00
3860;DHT22;1945;52.036;8.614;2022-11-28T14:57:17;7.60;1.00
3860;DHT22;1945;52.036;8.614;2022-11-28T14:59:45;7.10;1.00
3860;DHT22;1945;52.036;8.614;2022-11-28T15:05:30;7.10;9.90
3860;DHT22;1945;52.036;8.614;2022-11-28T15:08:14;7.10;44.70
3860;DHT22;1945;52.036;8.614;2022-11-28T15:10:49;7.10;90.40
3860;DHT22;1945;52.036;8.614;2022-11-28T15:13:30;7.60;99.90
3860;DHT22;1945;52.036;8.614;2022-11-28T15:15:58;7.50;99.90
3860;DHT22;1945;52.036;8.614;2022-11-28T15:18:29;7.00;98.40
3860;DHT22;1945;52.036;8.614;2022-11-28T15:20:59;7.00;99.90
3860;DHT22;1945;52.036;8.614;2022-11-28T15:23:29;7.00;99.90
3860;DHT22;1945;52.036;8.614;2022-11-28T15:25:58;7.30;99.90
3860;DHT22;1945;52.036;8.614;2022-11-28T15:28:27;7.40;99.90
3860;DHT22;1945;52.036;8.614;2022-11-28T15:30:57;6.90;99.90
3860;DHT22;1945;52.036;8.614;2022-11-28T15:33:26;6.90;99.90
3860;DHT22;1945;52.036;8.614;2022-11-28T15:35:56;6.90;99.90
3860;DHT22;1945;52.036;8.614;2022-11-28T15:38:25;6.90;99.90
3860;DHT22;1945;52.036;8.614;2022-11-28T15:40:54;7.20;99.90
3860;DHT22;1945;52.036;8.614;2022-11-28T15:43:23;7.20;99.90
3860;DHT22;1945;52.036;8.614;2022-11-28T15:45:52;7.20;99.90
3860;DHT22;1945;52.036;8.614;2022-11-28T15:48:25;7.20;99.90
3860;DHT22;1945;52.036;8.614;2022-11-28T15:50:52;7.20;99.90
3860;DHT22;1945;52.036;8.614;2022-11-28T15:53:20;6.70;99.90
3860;DHT22;1945;52.036;8.614;2022-11-28T15:56:06;6.70;99.90
3860;DHT22;1945;52.036;8.614;2022-11-28T15:58:35;6.70;99.90
3860;DHT22;1945;52.036;8.614;2022-11-28T16:01:04;7.10;99.90
3860;DHT22;1945;52.036;8.614;2022-11-28T16:03:36;6.80;99.90
3860;DHT22;1945;52.036;8.614;2022-11-28T16:06:07;6.70;99.90
3860;DHT22;1945;52.036;8.614;2022-11-28T16:08:36;6.70;99.90
3860;DHT22;1945;52.036;8.614;2022-11-28T16:11:06;7.20;99.90
3860;DHT22;1945;52.036;8.614;2022-11-28T16:13:36;6.70;99.90
3860;DHT22;1945;52.036;8.614;2022-11-28T16:16:10;6.70;99.90
3860;DHT22;1945;52.036;8.614;2022-11-28T16:18:42;7.10;99.90
3860;DHT22;1945;52.036;8.614;2022-11-28T16:21:11;7.00;99.90
3860;DHT22;1945;52.036;8.614;2022-11-28T16:23:39;6.60;99.90
3860;DHT22;1945;52.036;8.614;2022-11-28T16:26:20;7.00;99.90
3860;DHT22;1945;52.036;8.614;2022-11-28T16:28:59;7.20;99.90
3860;DHT22;1945;52.036;8.614;2022-11-28T16:31:27;7.00;99.90
3860;DHT22;1945;52.036;8.614;2022-11-28T16:33:55;7.20;99.90
3860;DHT22;1945;52.036;8.614;2022-11-28T16:36:23;6.60;99.90
3860;DHT22;1945;52.036;8.614;2022-11-28T16:38:52;7.10;99.90
3860;DHT22;1945;52.036;8.614;2022-11-28T16:41:21;6.90;99.90
3860;DHT22;1945;52.036;8.614;2022-11-28T16:43:53;7.00;99.90
3860;DHT22;1945;52.036;8.614;2022-11-28T16:46:23;7.00;99.90
3860;DHT22;1945;52.036;8.614;2022-11-28T16:48:54;7.00;99.90
3860;DHT22;1945;52.036;8.614;2022-11-28T16:51:32;6.60;99.90
3860;DHT22;1945;52.036;8.614;2022-11-28T16:54:01;6.60;99.90
3860;DHT22;1945;52.036;8.614;2022-11-28T16:56:46;6.90;99.90
3860;DHT22;1945;52.036;8.614;2022-11-28T16:59:15;6.50;99.90
3860;DHT22;1945;52.036;8.614;2022-11-28T17:01:45;6.30;99.90
3860;DHT22;1945;52.036;8.614;2022-11-28T17:04:20;7.00;99.90
3860;DHT22;1945;52.036;8.614;2022-11-28T17:06:48;6.50;99.90